PWSweather.com
Personal Weather Stations
Station Observations
KCOGRAND2
Redlands, Southcamp Road & Dakota Circle, Grand Junction, CO 81507

Redlands, Southcamp Road & Dakota CircleGrand Junction, CO 81507

Lat: 39.055, Lon: -108.637

Elevation: 4870

Station Type: RadioShack WX200

High Low Average
Temperature 67.5°F19.7°C 45.0°F7.2°C 56.4°F13.6°C
Dew Point 26.6°F-3.0°C 3.2°F-16.0°C 15.9°F-8.9°C
Winds 15.0 mph 24.1 kmh Calm Calm 5.0 mph SE8.0 kmh SE
Wind Gusts 21.0 mph33.8 kmh -- 8.0 mph12.9 kmh
Humidity 47% 11% 26%
Pressure 24.83 in840.8 mb 24.75 in838.1 mb -
Precipitation 0.00 in0.0 mm - -
Hour Temp Dew Point Humidity Winds Wind Gusts Pressure Precip Precip Rate Daily Precip Total
12:01 AM 48.7°F9.3°C 23.7°F-4.6°C 37% 2.0 mph WSW3.2 kmh WSW 4.5 mph7.2 kmh 24.83 in840.8 mb 0.00 in0.0 mm 0.00 in0.0 mm 0.00 in0.0 mm
12:06 AM 48.7°F9.3°C 23.7°F-4.6°C 37% 1.0 mph WSW1.6 kmh WSW 3.6 mph5.8 kmh 24.83 in840.8 mb 0.00 in0.0 mm 0.00 in0.0 mm 0.00 in0.0 mm
12:11 AM 48.6°F9.2°C 23.5°F-4.7°C 37% Calm Calm 3.6 mph5.8 kmh 24.83 in840.8 mb 0.00 in0.0 mm 0.00 in0.0 mm 0.00 in0.0 mm
12:16 AM 48.6°F9.2°C 24.1°F-4.4°C 38% 1.0 mph WSW1.6 kmh WSW 5.4 mph8.7 kmh 24.83 in840.8 mb 0.00 in0.0 mm 0.00 in0.0 mm 0.00 in0.0 mm
12:21 AM 48.2°F9.0°C 23.7°F-4.6°C 38% 1.0 mph WSW1.6 kmh WSW 3.6 mph5.8 kmh 24.83 in840.8 mb 0.00 in0.0 mm 0.00 in0.0 mm 0.00 in0.0 mm
12:26 AM 47.7°F8.7°C 23.4°F-4.8°C 38% 1.0 mph WSW1.6 kmh WSW 4.0 mph6.4 kmh 24.83 in840.8 mb 0.00 in0.0 mm 0.00 in0.0 mm 0.00 in0.0 mm
12:31 AM 47.7°F8.7°C 23.4°F-4.8°C 38% 1.0 mph WSW1.6 kmh WSW 3.1 mph5.0 kmh 24.83 in840.8 mb 0.00 in0.0 mm 0.00 in0.0 mm 0.00 in0.0 mm
12:36 AM 47.3°F8.5°C 24.3°F-4.3°C 40% 1.0 mph WSW1.6 kmh WSW 4.5 mph7.2 kmh 24.83 in840.8 mb 0.00 in0.0 mm 0.00 in0.0 mm 0.00 in0.0 mm
12:41 AM 47.8°F8.8°C 24.6°F-4.1°C 40% 2.0 mph WSW3.2 kmh WSW 4.5 mph7.2 kmh 24.83 in840.8 mb 0.00 in0.0 mm 0.00 in0.0 mm 0.00 in0.0 mm
12:46 AM 48.6°F9.2°C 24.1°F-4.4°C 38% 3.0 mph W4.8 kmh W 5.4 mph8.7 kmh 24.83 in840.8 mb 0.00 in0.0 mm 0.00 in0.0 mm 0.00 in0.0 mm
12:51 AM 47.7°F8.7°C 23.9°F-4.5°C 39% 2.0 mph NE3.2 kmh NE 3.6 mph5.8 kmh 24.83 in840.8 mb 0.00 in0.0 mm 0.00 in0.0 mm 0.00 in0.0 mm
12:57 AM 47.8°F8.8°C 24.1°F-4.4°C 39% 2.0 mph ENE3.2 kmh ENE 5.4 mph8.7 kmh 24.83 in840.8 mb 0.00 in0.0 mm 0.00 in0.0 mm 0.00 in0.0 mm
01:02 AM 47.8°F8.8°C 24.1°F-4.4°C 39% 2.0 mph ENE3.2 kmh ENE 4.9 mph7.9 kmh 24.83 in840.8 mb 0.00 in0.0 mm 0.00 in0.0 mm 0.00 in0.0 mm
01:07 AM 48.4°F9.1°C 24.6°F-4.1°C 39% 2.0 mph ENE3.2 kmh ENE 4.0 mph6.4 kmh 24.83 in840.8 mb 0.00 in0.0 mm 0.00 in0.0 mm 0.00 in0.0 mm
01:12 AM 47.3°F8.5°C 23.5°F-4.7°C 39% 2.0 mph ENE3.2 kmh ENE 6.3 mph10.1 kmh 24.83 in840.8 mb 0.00 in0.0 mm 0.00 in0.0 mm 0.00 in0.0 mm
01:17 AM 47.1°F8.4°C 24.1°F-4.4°C 40% 1.0 mph ENE1.6 kmh ENE -- 24.83 in840.8 mb 0.00 in0.0 mm 0.00 in0.0 mm 0.00 in0.0 mm
01:22 AM 48.4°F9.1°C 24.6°F-4.1°C 39% 1.0 mph ENE1.6 kmh ENE 4.0 mph6.4 kmh 24.83 in840.8 mb 0.00 in0.0 mm 0.00 in0.0 mm 0.00 in0.0 mm
01:27 AM 48.6°F9.2°C 24.1°F-4.4°C 38% 2.0 mph ENE3.2 kmh ENE 5.8 mph9.3 kmh 24.83 in840.8 mb 0.00 in0.0 mm 0.00 in0.0 mm 0.00 in0.0 mm
01:32 AM 47.7°F8.7°C 23.9°F-4.5°C 39% 2.0 mph E3.2 kmh E 4.0 mph6.4 kmh 24.83 in840.8 mb 0.00 in0.0 mm 0.00 in0.0 mm 0.00 in0.0 mm
01:37 AM 47.1°F8.4°C 24.1°F-4.4°C 40% 1.0 mph E1.6 kmh E 5.4 mph8.7 kmh 24.83 in840.8 mb 0.00 in0.0 mm 0.00 in0.0 mm 0.00 in0.0 mm
01:42 AM 46.6°F8.1°C 24.8°F-4.0°C 42% 2.0 mph NE3.2 kmh NE 4.9 mph7.9 kmh 24.83 in840.8 mb 0.00 in0.0 mm 0.00 in0.0 mm 0.00 in0.0 mm
01:47 AM 47.5°F8.6°C 24.4°F-4.2°C 40% 3.0 mph N4.8 kmh N 4.9 mph7.9 kmh 24.83 in840.8 mb 0.00 in0.0 mm 0.00 in0.0 mm 0.00 in0.0 mm
01:52 AM 47.7°F8.7°C 24.6°F-4.1°C 40% 2.0 mph NNE3.2 kmh NNE 4.0 mph6.4 kmh 24.83 in840.8 mb 0.00 in0.0 mm 0.00 in0.0 mm 0.00 in0.0 mm
01:57 AM 47.8°F8.8°C 24.1°F-4.4°C 39% 1.0 mph NNE1.6 kmh NNE 2.7 mph4.3 kmh 24.83 in840.8 mb 0.00 in0.0 mm 0.00 in0.0 mm 0.00 in0.0 mm
02:02 AM 47.1°F8.4°C 24.1°F-4.4°C 40% Calm Calm -- 24.83 in840.8 mb 0.00 in0.0 mm 0.00 in0.0 mm 0.00 in0.0 mm
02:07 AM 47.1°F8.4°C 24.1°F-4.4°C 40% Calm Calm -- 24.83 in840.8 mb 0.00 in0.0 mm 0.00 in0.0 mm 0.00 in0.0 mm
02:12 AM 47.5°F8.6°C 24.4°F-4.2°C 40% Calm Calm -- 24.83 in840.8 mb 0.00 in0.0 mm 0.00 in0.0 mm 0.00 in0.0 mm
02:17 AM 46.8°F8.2°C 23.7°F-4.6°C 40% Calm Calm 4.0 mph6.4 kmh 24.83 in840.8 mb 0.00 in0.0 mm 0.00 in0.0 mm 0.00 in0.0 mm
02:22 AM 46.9°F8.3°C 23.9°F-4.5°C 40% 1.0 mph NNE1.6 kmh NNE 4.5 mph7.2 kmh 24.80 in839.8 mb 0.00 in0.0 mm 0.00 in0.0 mm 0.00 in0.0 mm
02:27 AM 47.1°F8.4°C 24.1°F-4.4°C 40% Calm Calm 4.0 mph6.4 kmh 24.80 in839.8 mb 0.00 in0.0 mm 0.00 in0.0 mm 0.00 in0.0 mm
02:32 AM 47.8°F8.8°C 24.1°F-4.4°C 39% 2.0 mph NNE3.2 kmh NNE 4.0 mph6.4 kmh 24.80 in839.8 mb 0.00 in0.0 mm 0.00 in0.0 mm 0.00 in0.0 mm
02:37 AM 46.9°F8.3°C 22.6°F-5.2°C 38% 3.0 mph NNE4.8 kmh NNE 5.8 mph9.3 kmh 24.80 in839.8 mb 0.00 in0.0 mm 0.00 in0.0 mm 0.00 in0.0 mm
02:42 AM 46.6°F8.1°C 23.5°F-4.7°C 40% 2.0 mph NNE3.2 kmh NNE 3.6 mph5.8 kmh 24.80 in839.8 mb 0.00 in0.0 mm 0.00 in0.0 mm 0.00 in0.0 mm
02:47 AM 46.4°F8.0°C 23.4°F-4.8°C 40% Calm Calm 3.6 mph5.8 kmh 24.80 in839.8 mb 0.00 in0.0 mm 0.00 in0.0 mm 0.00 in0.0 mm
02:52 AM 46.4°F8.0°C 24.1°F-4.4°C 41% Calm Calm 4.0 mph6.4 kmh 24.80 in839.8 mb 0.00 in0.0 mm 0.00 in0.0 mm 0.00 in0.0 mm
02:57 AM 46.6°F8.1°C 24.1°F-4.4°C 41% 1.0 mph NE1.6 kmh NE 4.0 mph6.4 kmh 24.80 in839.8 mb 0.00 in0.0 mm 0.00 in0.0 mm 0.00 in0.0 mm
03:02 AM 46.4°F8.0°C 24.1°F-4.4°C 41% 1.0 mph NE1.6 kmh NE 4.0 mph6.4 kmh 24.80 in839.8 mb 0.00 in0.0 mm 0.00 in0.0 mm 0.00 in0.0 mm
03:07 AM 46.8°F8.2°C 23.7°F-4.6°C 40% Calm Calm -- 24.80 in839.8 mb 0.00 in0.0 mm 0.00 in0.0 mm 0.00 in0.0 mm
03:12 AM 46.9°F8.3°C 23.9°F-4.5°C 40% Calm Calm -- 24.80 in839.8 mb 0.00 in0.0 mm 0.00 in0.0 mm 0.00 in0.0 mm
03:17 AM 47.5°F8.6°C 23.7°F-4.6°C 39% Calm Calm -- 24.80 in839.8 mb 0.00 in0.0 mm 0.00 in0.0 mm 0.00 in0.0 mm
03:22 AM 47.8°F8.8°C 23.5°F-4.7°C 38% 1.0 mph NE1.6 kmh NE 4.5 mph7.2 kmh 24.80 in839.8 mb 0.00 in0.0 mm 0.00 in0.0 mm 0.00 in0.0 mm
03:27 AM 48.7°F9.3°C 24.3°F-4.3°C 38% 3.0 mph NE4.8 kmh NE 4.9 mph7.9 kmh 24.80 in839.8 mb 0.00 in0.0 mm 0.00 in0.0 mm 0.00 in0.0 mm
03:32 AM 47.8°F8.8°C 23.5°F-4.7°C 38% 4.0 mph NE6.4 kmh NE 5.4 mph8.7 kmh 24.80 in839.8 mb 0.00 in0.0 mm 0.00 in0.0 mm 0.00 in0.0 mm
03:37 AM 47.7°F8.7°C 23.4°F-4.8°C 38% 4.0 mph NNE6.4 kmh NNE 6.3 mph10.1 kmh 24.80 in839.8 mb 0.00 in0.0 mm 0.00 in0.0 mm 0.00 in0.0 mm
03:42 AM 53.2°F11.8°C 19.2°F-7.1°C 26% 6.0 mph N9.7 kmh N 15.4 mph24.8 kmh 24.80 in839.8 mb 0.00 in0.0 mm 0.00 in0.0 mm 0.00 in0.0 mm
03:47 AM 56.8°F13.8°C 12.6°F-10.8°C 17% 8.0 mph 12.9 kmh 15.4 mph24.8 kmh 24.80 in839.8 mb 0.00 in0.0 mm 0.00 in0.0 mm 0.00 in0.0 mm
03:52 AM 53.8°F12.1°C 13.6°F-10.2°C 20% 8.0 mph E12.9 kmh E 13.0 mph20.9 kmh 24.80 in839.8 mb 0.00 in0.0 mm 0.00 in0.0 mm 0.00 in0.0 mm
03:57 AM 51.3°F10.7°C 19.2°F-7.1°C 28% 7.0 mph SE11.3 kmh SE 11.0 mph17.7 kmh 24.80 in839.8 mb 0.00 in0.0 mm 0.00 in0.0 mm 0.00 in0.0 mm
04:02 AM 50.5°F10.3°C 20.3°F-6.5°C 30% 6.0 mph SE9.7 kmh SE 9.6 mph15.4 kmh 24.80 in839.8 mb 0.00 in0.0 mm 0.00 in0.0 mm 0.00 in0.0 mm
04:07 AM 51.3°F10.7°C 19.2°F-7.1°C 28% 5.0 mph NE8.0 kmh NE 7.4 mph11.9 kmh 24.80 in839.8 mb 0.00 in0.0 mm 0.00 in0.0 mm 0.00 in0.0 mm
04:12 AM 50.7°F10.4°C 20.5°F-6.4°C 30% 4.0 mph NNW6.4 kmh NNW 8.7 mph14.0 kmh 24.80 in839.8 mb 0.00 in0.0 mm 0.00 in0.0 mm 0.00 in0.0 mm
04:17 AM 49.8°F9.9°C 21.2°F-6.0°C 32% 5.0 mph NW8.0 kmh NW 6.7 mph10.8 kmh 24.80 in839.8 mb 0.00 in0.0 mm 0.00 in0.0 mm 0.00 in0.0 mm
04:22 AM 49.1°F9.5°C 22.6°F-5.2°C 35% 5.0 mph NNW8.0 kmh NNW 7.8 mph12.6 kmh 24.80 in839.8 mb 0.00 in0.0 mm 0.00 in0.0 mm 0.00 in0.0 mm
04:27 AM 48.7°F9.3°C 23.7°F-4.6°C 37% 6.0 mph NNW9.7 kmh NNW 10.5 mph16.9 kmh 24.80 in839.8 mb 0.00 in0.0 mm 0.00 in0.0 mm 0.00 in0.0 mm
04:32 AM 48.6°F9.2°C 24.1°F-4.4°C 38% 7.0 mph NW11.3 kmh NW 8.3 mph13.4 kmh 24.80 in839.8 mb 0.00 in0.0 mm 0.00 in0.0 mm 0.00 in0.0 mm
04:37 AM 48.4°F9.1°C 23.9°F-4.5°C 38% 6.0 mph NW9.7 kmh NW 9.2 mph14.8 kmh 24.80 in839.8 mb 0.00 in0.0 mm 0.00 in0.0 mm 0.00 in0.0 mm
04:42 AM 48.0°F8.9°C 23.7°F-4.6°C 38% 4.0 mph NW6.4 kmh NW 6.7 mph10.8 kmh 24.80 in839.8 mb 0.00 in0.0 mm 0.00 in0.0 mm 0.00 in0.0 mm
04:47 AM 47.5°F8.6°C 23.7°F-4.6°C 39% 3.0 mph NNW4.8 kmh NNW 6.9 mph11.1 kmh 24.80 in839.8 mb 0.00 in0.0 mm 0.00 in0.0 mm 0.00 in0.0 mm
04:52 AM 46.8°F8.2°C 25.0°F-3.9°C 42% 4.0 mph S6.4 kmh S 6.3 mph10.1 kmh 24.80 in839.8 mb 0.00 in0.0 mm 0.00 in0.0 mm 0.00 in0.0 mm
04:57 AM 47.5°F8.6°C 24.4°F-4.2°C 40% 3.0 mph SW4.8 kmh SW 4.5 mph7.2 kmh 24.80 in839.8 mb 0.00 in0.0 mm 0.00 in0.0 mm 0.00 in0.0 mm
05:02 AM 46.9°F8.3°C 24.4°F-4.2°C 41% 3.0 mph E4.8 kmh E 5.8 mph9.3 kmh 24.80 in839.8 mb 0.00 in0.0 mm 0.00 in0.0 mm 0.00 in0.0 mm
05:07 AM 47.1°F8.4°C 24.6°F-4.1°C 41% 3.0 mph E4.8 kmh E 4.9 mph7.9 kmh 24.80 in839.8 mb 0.00 in0.0 mm 0.00 in0.0 mm 0.00 in0.0 mm
05:12 AM 47.1°F8.4°C 24.6°F-4.1°C 41% 2.0 mph N3.2 kmh N 3.6 mph5.8 kmh 24.80 in839.8 mb 0.00 in0.0 mm 0.00 in0.0 mm 0.00 in0.0 mm
05:17 AM 47.1°F8.4°C 24.6°F-4.1°C 41% 2.0 mph 3.2 kmh 4.9 mph7.9 kmh 24.80 in839.8 mb 0.00 in0.0 mm 0.00 in0.0 mm 0.00 in0.0 mm
05:22 AM 47.1°F8.4°C 24.6°F-4.1°C 41% 2.0 mph NE3.2 kmh NE 4.5 mph7.2 kmh 24.80 in839.8 mb 0.00 in0.0 mm 0.00 in0.0 mm 0.00 in0.0 mm
05:27 AM 47.1°F8.4°C 24.6°F-4.1°C 41% 2.0 mph NE3.2 kmh NE 4.5 mph7.2 kmh 24.80 in839.8 mb 0.00 in0.0 mm 0.00 in0.0 mm 0.00 in0.0 mm
05:32 AM 47.8°F8.8°C 24.1°F-4.4°C 39% 3.0 mph NE4.8 kmh NE 6.7 mph10.8 kmh 24.80 in839.8 mb 0.00 in0.0 mm 0.00 in0.0 mm 0.00 in0.0 mm
05:37 AM 46.6°F8.1°C 24.1°F-4.4°C 41% 3.0 mph NE4.8 kmh NE 7.8 mph12.6 kmh 24.80 in839.8 mb 0.00 in0.0 mm 0.00 in0.0 mm 0.00 in0.0 mm
05:42 AM 46.0°F7.8°C 24.8°F-4.0°C 43% 3.0 mph NE4.8 kmh NE 6.3 mph10.1 kmh 24.80 in839.8 mb 0.00 in0.0 mm 0.00 in0.0 mm 0.00 in0.0 mm
05:47 AM 45.3°F7.4°C 24.6°F-4.1°C 44% 3.0 mph ENE4.8 kmh ENE 6.3 mph10.1 kmh 24.80 in839.8 mb 0.00 in0.0 mm 0.00 in0.0 mm 0.00 in0.0 mm
05:52 AM 45.5°F7.5°C 25.3°F-3.7°C 45% 4.0 mph NE6.4 kmh NE 5.4 mph8.7 kmh 24.80 in839.8 mb 0.00 in0.0 mm 0.00 in0.0 mm 0.00 in0.0 mm
05:57 AM 45.5°F7.5°C 24.8°F-4.0°C 44% 4.0 mph NNE6.4 kmh NNE 7.4 mph11.9 kmh 24.80 in839.8 mb 0.00 in0.0 mm 0.00 in0.0 mm 0.00 in0.0 mm
06:02 AM 45.0°F7.2°C 25.9°F-3.4°C 47% 4.0 mph NNE6.4 kmh NNE 6.3 mph10.1 kmh 24.80 in839.8 mb 0.00 in0.0 mm 0.00 in0.0 mm 0.00 in0.0 mm
06:07 AM 45.9°F7.7°C 24.6°F-4.1°C 43% 4.0 mph NNE6.4 kmh NNE 6.7 mph10.8 kmh 24.80 in839.8 mb 0.00 in0.0 mm 0.00 in0.0 mm 0.00 in0.0 mm
06:12 AM 45.1°F7.3°C 24.6°F-4.1°C 44% 4.0 mph NE6.4 kmh NE 5.8 mph9.3 kmh 24.80 in839.8 mb 0.00 in0.0 mm 0.00 in0.0 mm 0.00 in0.0 mm
06:17 AM 47.5°F8.6°C 25.0°F-3.9°C 41% 4.0 mph NNE6.4 kmh NNE 6.9 mph11.1 kmh 24.80 in839.8 mb 0.00 in0.0 mm 0.00 in0.0 mm 0.00 in0.0 mm
06:22 AM 46.4°F8.0°C 23.4°F-4.8°C 40% 5.0 mph N8.0 kmh N 8.7 mph14.0 kmh 24.80 in839.8 mb 0.00 in0.0 mm 0.00 in0.0 mm 0.00 in0.0 mm
06:27 AM 46.4°F8.0°C 23.4°F-4.8°C 40% 4.0 mph NNE6.4 kmh NNE 4.9 mph7.9 kmh 24.80 in839.8 mb 0.00 in0.0 mm 0.00 in0.0 mm 0.00 in0.0 mm
06:32 AM 46.6°F8.1°C 23.5°F-4.7°C 40% 2.0 mph NNE3.2 kmh NNE 6.3 mph10.1 kmh 24.80 in839.8 mb 0.00 in0.0 mm 0.00 in0.0 mm 0.00 in0.0 mm
06:37 AM 46.0°F7.8°C 23.0°F-5.0°C 40% 1.0 mph E1.6 kmh E 3.6 mph5.8 kmh 24.80 in839.8 mb 0.00 in0.0 mm 0.00 in0.0 mm 0.00 in0.0 mm
06:42 AM 46.0°F7.8°C 23.7°F-4.6°C 41% 1.0 mph E1.6 kmh E 5.4 mph8.7 kmh 24.80 in839.8 mb 0.00 in0.0 mm 0.00 in0.0 mm 0.00 in0.0 mm
06:47 AM 45.3°F7.4°C 24.1°F-4.4°C 43% 1.0 mph ESE1.6 kmh ESE 3.1 mph5.0 kmh 24.80 in839.8 mb 0.00 in0.0 mm 0.00 in0.0 mm 0.00 in0.0 mm
06:52 AM 45.5°F7.5°C 24.3°F-4.3°C 43% 1.0 mph ESE1.6 kmh ESE 5.4 mph8.7 kmh 24.80 in839.8 mb 0.00 in0.0 mm 0.00 in0.0 mm 0.00 in0.0 mm
06:57 AM 45.1°F7.3°C 25.2°F-3.8°C 45% 1.0 mph E1.6 kmh E 4.5 mph7.2 kmh 24.80 in839.8 mb 0.00 in0.0 mm 0.00 in0.0 mm 0.00 in0.0 mm
07:02 AM 45.1°F7.3°C 25.5°F-3.6°C 46% 1.0 mph E1.6 kmh E 3.1 mph5.0 kmh 24.80 in839.8 mb 0.00 in0.0 mm 0.00 in0.0 mm 0.00 in0.0 mm
07:07 AM 45.3°F7.4°C 26.2°F-3.2°C 47% Calm Calm -- 24.80 in839.8 mb 0.00 in0.0 mm 0.00 in0.0 mm 0.00 in0.0 mm
07:12 AM 46.8°F8.2°C 26.6°F-3.0°C 45% 2.0 mph NE3.2 kmh NE 6.7 mph10.8 kmh 24.80 in839.8 mb 0.00 in0.0 mm 0.00 in0.0 mm 0.00 in0.0 mm
07:17 AM 46.9°F8.3°C 26.2°F-3.2°C 44% 3.0 mph NW4.8 kmh NW 4.5 mph7.2 kmh 24.80 in839.8 mb 0.00 in0.0 mm 0.00 in0.0 mm 0.00 in0.0 mm
07:22 AM 47.1°F8.4°C 25.7°F-3.5°C 43% 1.0 mph NW1.6 kmh NW 3.6 mph5.8 kmh 24.80 in839.8 mb 0.00 in0.0 mm 0.00 in0.0 mm 0.00 in0.0 mm
07:27 AM 47.3°F8.5°C 25.3°F-3.7°C 42% 1.0 mph N1.6 kmh N 4.5 mph7.2 kmh 24.80 in839.8 mb 0.00 in0.0 mm 0.00 in0.0 mm 0.00 in0.0 mm
07:32 AM 47.5°F8.6°C 25.5°F-3.6°C 42% Calm Calm -- 24.80 in839.8 mb 0.00 in0.0 mm 0.00 in0.0 mm 0.00 in0.0 mm
07:37 AM 48.0°F8.9°C 25.5°F-3.6°C 41% 1.0 mph N1.6 kmh N 5.8 mph9.3 kmh 24.83 in840.8 mb 0.00 in0.0 mm 0.00 in0.0 mm 0.00 in0.0 mm
07:42 AM 48.4°F9.1°C 25.7°F-3.5°C 41% 1.0 mph NNW1.6 kmh NNW 4.9 mph7.9 kmh 24.83 in840.8 mb 0.00 in0.0 mm 0.00 in0.0 mm 0.00 in0.0 mm
07:47 AM 48.4°F9.1°C 25.2°F-3.8°C 40% 2.0 mph NW3.2 kmh NW 5.4 mph8.7 kmh 24.83 in840.8 mb 0.00 in0.0 mm 0.00 in0.0 mm 0.00 in0.0 mm
07:52 AM 48.9°F9.4°C 25.0°F-3.9°C 39% 3.0 mph NW4.8 kmh NW 4.5 mph7.2 kmh 24.83 in840.8 mb 0.00 in0.0 mm 0.00 in0.0 mm 0.00 in0.0 mm
07:57 AM 49.3°F9.6°C 24.8°F-4.0°C 38% 2.0 mph NW3.2 kmh NW 3.6 mph5.8 kmh 24.83 in840.8 mb 0.00 in0.0 mm 0.00 in0.0 mm 0.00 in0.0 mm
08:02 AM 49.6°F9.8°C 25.2°F-3.8°C 38% 1.0 mph NW1.6 kmh NW 3.1 mph5.0 kmh 24.83 in840.8 mb 0.00 in0.0 mm 0.00 in0.0 mm 0.00 in0.0 mm
08:07 AM 51.1°F10.6°C 25.7°F-3.5°C 37% Calm Calm -- 24.83 in840.8 mb 0.00 in0.0 mm 0.00 in0.0 mm 0.00 in0.0 mm
08:12 AM 52.5°F11.4°C 26.4°F-3.1°C 36% Calm Calm 3.6 mph5.8 kmh 24.83 in840.8 mb 0.00 in0.0 mm 0.00 in0.0 mm 0.00 in0.0 mm
08:17 AM 52.2°F11.2°C 26.1°F-3.3°C 36% 1.0 mph NW1.6 kmh NW 4.0 mph6.4 kmh 24.83 in840.8 mb 0.00 in0.0 mm 0.00 in0.0 mm 0.00 in0.0 mm
08:22 AM 52.5°F11.4°C 25.0°F-3.9°C 34% 2.0 mph NW3.2 kmh NW 5.4 mph8.7 kmh 24.83 in840.8 mb 0.00 in0.0 mm 0.00 in0.0 mm 0.00 in0.0 mm
08:27 AM 53.1°F11.7°C 24.8°F-4.0°C 33% 2.0 mph NW3.2 kmh NW 4.9 mph7.9 kmh 24.83 in840.8 mb 0.00 in0.0 mm 0.00 in0.0 mm 0.00 in0.0 mm
08:32 AM 53.2°F11.8°C 24.8°F-4.0°C 33% 2.0 mph NW3.2 kmh NW 4.9 mph7.9 kmh 24.83 in840.8 mb 0.00 in0.0 mm 0.00 in0.0 mm 0.00 in0.0 mm
08:37 AM 54.5°F12.5°C 24.4°F-4.2°C 31% 3.0 mph NW4.8 kmh NW 4.5 mph7.2 kmh 24.83 in840.8 mb 0.00 in0.0 mm 0.00 in0.0 mm 0.00 in0.0 mm
08:42 AM 54.7°F12.6°C 22.3°F-5.4°C 28% 2.0 mph NW3.2 kmh NW 4.5 mph7.2 kmh 24.83 in840.8 mb 0.00 in0.0 mm 0.00 in0.0 mm 0.00 in0.0 mm
08:47 AM 54.9°F12.7°C 21.6°F-5.8°C 27% 2.0 mph NW3.2 kmh NW 5.4 mph8.7 kmh 24.83 in840.8 mb 0.00 in0.0 mm 0.00 in0.0 mm 0.00 in0.0 mm
08:52 AM 55.9°F13.3°C 23.4°F-4.8°C 28% 3.0 mph NW4.8 kmh NW 5.4 mph8.7 kmh 24.83 in840.8 mb 0.00 in0.0 mm 0.00 in0.0 mm 0.00 in0.0 mm
08:57 AM 55.8°F13.2°C 22.3°F-5.4°C 27% 3.0 mph NW4.8 kmh NW 5.8 mph9.3 kmh 24.83 in840.8 mb 0.00 in0.0 mm 0.00 in0.0 mm 0.00 in0.0 mm
09:02 AM 55.4°F13.0°C 21.0°F-6.1°C 26% 3.0 mph NW4.8 kmh NW 6.7 mph10.8 kmh 24.83 in840.8 mb 0.00 in0.0 mm 0.00 in0.0 mm 0.00 in0.0 mm
09:07 AM 56.7°F13.7°C 21.2°F-6.0°C 25% 4.0 mph NNW6.4 kmh NNW 5.4 mph8.7 kmh 24.83 in840.8 mb 0.00 in0.0 mm 0.00 in0.0 mm 0.00 in0.0 mm
09:12 AM 56.8°F13.8°C 21.4°F-5.9°C 25% 3.0 mph N4.8 kmh N 5.8 mph9.3 kmh 24.83 in840.8 mb 0.00 in0.0 mm 0.00 in0.0 mm 0.00 in0.0 mm
09:17 AM 57.4°F14.1°C 20.8°F-6.2°C 24% 4.0 mph N6.4 kmh N 5.4 mph8.7 kmh 24.83 in840.8 mb 0.00 in0.0 mm 0.00 in0.0 mm 0.00 in0.0 mm
09:22 AM 57.6°F14.2°C 21.0°F-6.1°C 24% 4.0 mph NNW6.4 kmh NNW 6.3 mph10.1 kmh 24.83 in840.8 mb 0.00 in0.0 mm 0.00 in0.0 mm 0.00 in0.0 mm
09:27 AM 57.7°F14.3°C 19.2°F-7.1°C 22% 4.0 mph N6.4 kmh N 7.8 mph12.6 kmh 24.83 in840.8 mb 0.00 in0.0 mm 0.00 in0.0 mm 0.00 in0.0 mm
09:32 AM 57.9°F14.4°C 16.0°F-8.9°C 19% 5.0 mph N8.0 kmh N 8.7 mph14.0 kmh 24.83 in840.8 mb 0.00 in0.0 mm 0.00 in0.0 mm 0.00 in0.0 mm
09:37 AM 59.0°F15.0°C 16.9°F-8.4°C 19% 5.0 mph N8.0 kmh N 6.9 mph11.1 kmh 24.80 in839.8 mb 0.00 in0.0 mm 0.00 in0.0 mm 0.00 in0.0 mm
09:42 AM 59.4°F15.2°C 14.5°F-9.7°C 17% 4.0 mph NNE6.4 kmh NNE 6.7 mph10.8 kmh 24.80 in839.8 mb 0.00 in0.0 mm 0.00 in0.0 mm 0.00 in0.0 mm
09:47 AM 59.5°F15.3°C 10.4°F-12.0°C 14% 3.0 mph N4.8 kmh N 6.9 mph11.1 kmh 24.80 in839.8 mb 0.00 in0.0 mm 0.00 in0.0 mm 0.00 in0.0 mm
09:52 AM 59.9°F15.5°C 10.6°F-11.9°C 14% 3.0 mph 4.8 kmh 6.7 mph10.8 kmh 24.80 in839.8 mb 0.00 in0.0 mm 0.00 in0.0 mm 0.00 in0.0 mm
09:57 AM 60.1°F15.6°C 10.8°F-11.8°C 14% 3.0 mph N4.8 kmh N 9.2 mph14.8 kmh 24.80 in839.8 mb 0.00 in0.0 mm 0.00 in0.0 mm 0.00 in0.0 mm
10:02 AM 60.1°F15.6°C 10.8°F-11.8°C 14% 4.0 mph WNW6.4 kmh WNW 9.6 mph15.4 kmh 24.80 in839.8 mb 0.00 in0.0 mm 0.00 in0.0 mm 0.00 in0.0 mm
10:07 AM 61.3°F16.3°C 11.8°F-11.2°C 14% 4.0 mph WSW6.4 kmh WSW 6.7 mph10.8 kmh 24.80 in839.8 mb 0.00 in0.0 mm 0.00 in0.0 mm 0.00 in0.0 mm
10:12 AM 61.5°F16.4°C 6.6°F-14.1°C 11% 3.0 mph W4.8 kmh W 6.9 mph11.1 kmh 24.80 in839.8 mb 0.00 in0.0 mm 0.00 in0.0 mm 0.00 in0.0 mm
10:17 AM 61.7°F16.5°C 6.6°F-14.1°C 11% 4.0 mph WSW6.4 kmh WSW 8.3 mph13.4 kmh 24.80 in839.8 mb 0.00 in0.0 mm 0.00 in0.0 mm 0.00 in0.0 mm
10:22 AM 61.9°F16.6°C 6.8°F-14.0°C 11% 4.0 mph WSW6.4 kmh WSW 8.3 mph13.4 kmh 24.80 in839.8 mb 0.00 in0.0 mm 0.00 in0.0 mm 0.00 in0.0 mm
10:27 AM 62.6°F17.0°C 7.3°F-13.7°C 11% 4.0 mph WSW6.4 kmh WSW 11.0 mph17.7 kmh 24.80 in839.8 mb 0.00 in0.0 mm 0.00 in0.0 mm 0.00 in0.0 mm
10:32 AM 63.3°F17.4°C 7.9°F-13.4°C 11% 5.0 mph S8.0 kmh S 8.3 mph13.4 kmh 24.80 in839.8 mb 0.00 in0.0 mm 0.00 in0.0 mm 0.00 in0.0 mm
10:37 AM 62.1°F16.7°C 7.0°F-13.9°C 11% 6.0 mph S9.7 kmh S 12.1 mph19.5 kmh 24.80 in839.8 mb 0.00 in0.0 mm 0.00 in0.0 mm 0.00 in0.0 mm
10:42 AM 62.2°F16.8°C 7.2°F-13.8°C 11% 7.0 mph SW11.3 kmh SW 10.1 mph16.3 kmh 24.80 in839.8 mb 0.00 in0.0 mm 0.00 in0.0 mm 0.00 in0.0 mm
10:47 AM 62.4°F16.9°C 7.2°F-13.8°C 11% 6.0 mph SSW9.7 kmh SSW 11.2 mph18.0 kmh 24.80 in839.8 mb 0.00 in0.0 mm 0.00 in0.0 mm 0.00 in0.0 mm
10:52 AM 63.0°F17.2°C 7.7°F-13.5°C 11% 6.0 mph S9.7 kmh S 11.0 mph17.7 kmh 24.80 in839.8 mb 0.00 in0.0 mm 0.00 in0.0 mm 0.00 in0.0 mm
10:57 AM 63.3°F17.4°C 7.9°F-13.4°C 11% 8.0 mph S12.9 kmh S 13.9 mph22.4 kmh 24.80 in839.8 mb 0.00 in0.0 mm 0.00 in0.0 mm 0.00 in0.0 mm
11:02 AM 62.6°F17.0°C 7.3°F-13.7°C 11% 10.0 mph S16.1 kmh S 15.9 mph25.6 kmh 24.80 in839.8 mb 0.00 in0.0 mm 0.00 in0.0 mm 0.00 in0.0 mm
11:07 AM 61.7°F16.5°C 6.6°F-14.1°C 11% 9.0 mph S14.5 kmh S 12.5 mph20.1 kmh 24.80 in839.8 mb 0.00 in0.0 mm 0.00 in0.0 mm 0.00 in0.0 mm
11:12 AM 60.1°F15.6°C -5537.2°C - 9.0 mph S14.5 kmh S 13.9 mph22.4 kmh 24.80 in839.8 mb 0.00 in0.0 mm 0.00 in0.0 mm 0.00 in0.0 mm
11:17 AM 59.7°F15.4°C 7.0°F-13.9°C 12% 8.0 mph S12.9 kmh S 10.5 mph16.9 kmh 24.80 in839.8 mb 0.00 in0.0 mm 0.00 in0.0 mm 0.00 in0.0 mm
11:22 AM 59.2°F15.1°C 6.6°F-14.1°C 12% 7.0 mph S11.3 kmh S 10.1 mph16.3 kmh 24.80 in839.8 mb 0.00 in0.0 mm 0.00 in0.0 mm 0.00 in0.0 mm
11:27 AM 59.0°F15.0°C 6.4°F-14.2°C 12% 7.0 mph S11.3 kmh S 8.3 mph13.4 kmh 24.80 in839.8 mb 0.00 in0.0 mm 0.00 in0.0 mm 0.00 in0.0 mm
11:32 AM 59.0°F15.0°C 6.4°F-14.2°C 12% 6.0 mph S9.7 kmh S 7.8 mph12.6 kmh 24.80 in839.8 mb 0.00 in0.0 mm 0.00 in0.0 mm 0.00 in0.0 mm
11:37 AM 58.8°F14.9°C 9.7°F-12.4°C 14% 6.0 mph S9.7 kmh S 7.8 mph12.6 kmh 24.80 in839.8 mb 0.00 in0.0 mm 0.00 in0.0 mm 0.00 in0.0 mm
11:42 AM 58.8°F14.9°C 6.3°F-14.3°C 12% 6.0 mph S9.7 kmh S 7.8 mph12.6 kmh 24.80 in839.8 mb 0.00 in0.0 mm 0.00 in0.0 mm 0.00 in0.0 mm
11:47 AM 58.6°F14.8°C 6.3°F-14.3°C 12% 5.0 mph S8.0 kmh S 6.7 mph10.8 kmh 24.80 in839.8 mb 0.00 in0.0 mm 0.00 in0.0 mm 0.00 in0.0 mm
11:52 AM 58.8°F14.9°C 6.3°F-14.3°C 12% 3.0 mph S4.8 kmh S 6.3 mph10.1 kmh 24.80 in839.8 mb 0.00 in0.0 mm 0.00 in0.0 mm 0.00 in0.0 mm
11:57 AM 58.8°F14.9°C 6.3°F-14.3°C 12% 2.0 mph S3.2 kmh S 4.0 mph6.4 kmh 24.80 in839.8 mb 0.00 in0.0 mm 0.00 in0.0 mm 0.00 in0.0 mm
12:02 PM 59.2°F15.1°C 6.6°F-14.1°C 12% 2.0 mph S3.2 kmh S 4.9 mph7.9 kmh 24.80 in839.8 mb 0.00 in0.0 mm 0.00 in0.0 mm 0.00 in0.0 mm
12:07 PM 59.5°F15.3°C 7.0°F-13.9°C 12% 3.0 mph SSE4.8 kmh SSE 5.4 mph8.7 kmh 24.80 in839.8 mb 0.00 in0.0 mm 0.00 in0.0 mm 0.00 in0.0 mm
12:12 PM 59.9°F15.5°C 5.4°F-14.8°C 11% 4.0 mph SE6.4 kmh SE 6.7 mph10.8 kmh 24.80 in839.8 mb 0.00 in0.0 mm 0.00 in0.0 mm 0.00 in0.0 mm
12:17 PM 61.0°F16.1°C 6.1°F-14.4°C 11% 4.0 mph NE6.4 kmh NE 7.8 mph12.6 kmh 24.80 in839.8 mb 0.00 in0.0 mm 0.00 in0.0 mm 0.00 in0.0 mm
12:22 PM 61.3°F16.3°C 6.4°F-14.2°C 11% 6.0 mph N9.7 kmh N 9.6 mph15.4 kmh 24.80 in839.8 mb 0.00 in0.0 mm 0.00 in0.0 mm 0.00 in0.0 mm
12:27 PM 62.2°F16.8°C 7.2°F-13.8°C 11% 6.0 mph NE9.7 kmh NE 11.6 mph18.7 kmh 24.80 in839.8 mb 0.00 in0.0 mm 0.00 in0.0 mm 0.00 in0.0 mm
12:32 PM 60.3°F15.7°C 10.9°F-11.7°C 14% 7.0 mph NE11.3 kmh NE 15.9 mph25.6 kmh 24.80 in839.8 mb 0.00 in0.0 mm 0.00 in0.0 mm 0.00 in0.0 mm
12:37 PM 60.1°F15.6°C 10.8°F-11.8°C 14% 8.0 mph NE12.9 kmh NE 11.2 mph18.0 kmh 24.80 in839.8 mb 0.00 in0.0 mm 0.00 in0.0 mm 0.00 in0.0 mm
12:42 PM 60.4°F15.8°C 5.7°F-14.6°C 11% 7.0 mph NE11.3 kmh NE 12.1 mph19.5 kmh 24.80 in839.8 mb 0.00 in0.0 mm 0.00 in0.0 mm 0.00 in0.0 mm
12:47 PM 60.4°F15.8°C 11.1°F-11.6°C 14% 8.0 mph NE12.9 kmh NE 13.4 mph21.6 kmh 24.80 in839.8 mb 0.00 in0.0 mm 0.00 in0.0 mm 0.00 in0.0 mm
12:52 PM 60.6°F15.9°C 11.1°F-11.6°C 14% 8.0 mph NE12.9 kmh NE 13.0 mph20.9 kmh 24.80 in839.8 mb 0.00 in0.0 mm 0.00 in0.0 mm 0.00 in0.0 mm
12:58 PM 61.7°F16.5°C 10.4°F-12.0°C 13% 8.0 mph NE12.9 kmh NE 12.5 mph20.1 kmh 24.80 in839.8 mb 0.00 in0.0 mm 0.00 in0.0 mm 0.00 in0.0 mm
01:03 PM 61.7°F16.5°C 6.6°F-14.1°C 11% 8.0 mph NNE12.9 kmh NNE 14.8 mph23.8 kmh 24.77 in838.8 mb 0.00 in0.0 mm 0.00 in0.0 mm 0.00 in0.0 mm
01:08 PM 61.7°F16.5°C 6.6°F-14.1°C 11% 9.0 mph NNE14.5 kmh NNE 14.8 mph23.8 kmh 24.77 in838.8 mb 0.00 in0.0 mm 0.00 in0.0 mm 0.00 in0.0 mm
01:13 PM 61.7°F16.5°C 6.6°F-14.1°C 11% 8.0 mph NNE12.9 kmh NNE 12.5 mph20.1 kmh 24.77 in838.8 mb 0.00 in0.0 mm 0.00 in0.0 mm 0.00 in0.0 mm
01:18 PM 61.3°F16.3°C -5537.2°C - 8.0 mph N12.9 kmh N 13.0 mph20.9 kmh 24.77 in838.8 mb 0.00 in0.0 mm 0.00 in0.0 mm 0.00 in0.0 mm
01:23 PM 61.5°F16.4°C -5537.2°C - 9.0 mph NNE14.5 kmh NNE 13.0 mph20.9 kmh 24.77 in838.8 mb 0.00 in0.0 mm 0.00 in0.0 mm 0.00 in0.0 mm
01:28 PM 61.3°F16.3°C -5537.2°C - 7.0 mph NNE11.3 kmh NNE 11.0 mph17.7 kmh 24.77 in838.8 mb 0.00 in0.0 mm 0.00 in0.0 mm 0.00 in0.0 mm
01:33 PM 61.5°F16.4°C -5537.2°C - 6.0 mph NNE9.7 kmh NNE 10.1 mph16.3 kmh 24.77 in838.8 mb 0.00 in0.0 mm 0.00 in0.0 mm 0.00 in0.0 mm
01:38 PM 61.3°F16.3°C -5537.2°C - 7.0 mph N11.3 kmh N 11.2 mph18.0 kmh 24.77 in838.8 mb 0.00 in0.0 mm 0.00 in0.0 mm 0.00 in0.0 mm
01:43 PM 61.2°F16.2°C -5537.2°C - 8.0 mph NNE12.9 kmh NNE 13.0 mph20.9 kmh 24.77 in838.8 mb 0.00 in0.0 mm 0.00 in0.0 mm 0.00 in0.0 mm
01:48 PM 61.2°F16.2°C -5537.2°C - 8.0 mph NE12.9 kmh NE 13.0 mph20.9 kmh 24.77 in838.8 mb 0.00 in0.0 mm 0.00 in0.0 mm 0.00 in0.0 mm
01:53 PM 61.2°F16.2°C -5537.2°C - 9.0 mph NE14.5 kmh NE 17.7 mph28.5 kmh 24.77 in838.8 mb 0.00 in0.0 mm 0.00 in0.0 mm 0.00 in0.0 mm
01:58 PM 61.7°F16.5°C -5537.2°C - 9.0 mph NE14.5 kmh NE 11.6 mph18.7 kmh 24.77 in838.8 mb 0.00 in0.0 mm 0.00 in0.0 mm 0.00 in0.0 mm
02:03 PM 62.1°F16.7°C -5537.2°C - 8.0 mph NE12.9 kmh NE 14.3 mph23.0 kmh 24.77 in838.8 mb 0.00 in0.0 mm 0.00 in0.0 mm 0.00 in0.0 mm
02:08 PM 61.9°F16.6°C -5537.2°C - 9.0 mph NE14.5 kmh NE 14.3 mph23.0 kmh 24.77 in838.8 mb 0.00 in0.0 mm 0.00 in0.0 mm 0.00 in0.0 mm
02:13 PM 61.7°F16.5°C -5537.2°C - 9.0 mph NE14.5 kmh NE 15.9 mph25.6 kmh 24.77 in838.8 mb 0.00 in0.0 mm 0.00 in0.0 mm 0.00 in0.0 mm
02:18 PM 62.6°F17.0°C -5537.2°C - 8.0 mph NE12.9 kmh NE 11.2 mph18.0 kmh 24.77 in838.8 mb 0.00 in0.0 mm 0.00 in0.0 mm 0.00 in0.0 mm
02:23 PM 63.5°F17.5°C -5537.2°C - 6.0 mph NE9.7 kmh NE 11.0 mph17.7 kmh 24.77 in838.8 mb 0.00 in0.0 mm 0.00 in0.0 mm 0.00 in0.0 mm
02:28 PM 63.3°F17.4°C -5537.2°C - 6.0 mph NE9.7 kmh NE 10.1 mph16.3 kmh 24.77 in838.8 mb 0.00 in0.0 mm 0.00 in0.0 mm 0.00 in0.0 mm
02:33 PM 63.5°F17.5°C -5537.2°C - 6.0 mph NE9.7 kmh NE 11.2 mph18.0 kmh 24.77 in838.8 mb 0.00 in0.0 mm 0.00 in0.0 mm 0.00 in0.0 mm
02:38 PM 63.3°F17.4°C -5537.2°C - 7.0 mph NNE11.3 kmh NNE 13.4 mph21.6 kmh 24.77 in838.8 mb 0.00 in0.0 mm 0.00 in0.0 mm 0.00 in0.0 mm
02:43 PM 63.5°F17.5°C -5537.2°C - 8.0 mph NNE12.9 kmh NNE 13.0 mph20.9 kmh 24.77 in838.8 mb 0.00 in0.0 mm 0.00 in0.0 mm 0.00 in0.0 mm
02:48 PM 63.0°F17.2°C -5537.2°C - 8.0 mph N12.9 kmh N 11.0 mph17.7 kmh 24.75 in838.1 mb 0.00 in0.0 mm 0.00 in0.0 mm 0.00 in0.0 mm
02:53 PM 64.6°F18.1°C -5537.2°C - 7.0 mph N11.3 kmh N 11.0 mph17.7 kmh 24.75 in838.1 mb 0.00 in0.0 mm 0.00 in0.0 mm 0.00 in0.0 mm
02:58 PM 64.4°F18.0°C -5537.2°C - 6.0 mph N9.7 kmh N 8.7 mph14.0 kmh 24.75 in838.1 mb 0.00 in0.0 mm 0.00 in0.0 mm 0.00 in0.0 mm
03:03 PM 64.4°F18.0°C -5537.2°C - 4.0 mph N6.4 kmh N 6.9 mph11.1 kmh 24.75 in838.1 mb 0.00 in0.0 mm 0.00 in0.0 mm 0.00 in0.0 mm
03:08 PM 64.2°F17.9°C -5537.2°C - 4.0 mph NW6.4 kmh NW 8.7 mph14.0 kmh 24.75 in838.1 mb 0.00 in0.0 mm 0.00 in0.0 mm 0.00 in0.0 mm
03:13 PM 64.2°F17.9°C -5537.2°C - 7.0 mph W11.3 kmh W 12.1 mph19.5 kmh 24.75 in838.1 mb 0.00 in0.0 mm 0.00 in0.0 mm 0.00 in0.0 mm
03:18 PM 64.8°F18.2°C -5537.2°C - 8.0 mph W12.9 kmh W 11.6 mph18.7 kmh 24.75 in838.1 mb 0.00 in0.0 mm 0.00 in0.0 mm 0.00 in0.0 mm
03:23 PM 65.7°F18.7°C -5537.2°C - 6.0 mph WNW9.7 kmh WNW 10.1 mph16.3 kmh 24.75 in838.1 mb 0.00 in0.0 mm 0.00 in0.0 mm 0.00 in0.0 mm
03:28 PM 64.9°F18.3°C -5537.2°C - 6.0 mph WNW9.7 kmh WNW 15.4 mph24.8 kmh 24.75 in838.1 mb 0.00 in0.0 mm 0.00 in0.0 mm 0.00 in0.0 mm
03:33 PM 64.0°F17.8°C -5537.2°C - 8.0 mph W12.9 kmh W 15.4 mph24.8 kmh 24.75 in838.1 mb 0.00 in0.0 mm 0.00 in0.0 mm 0.00 in0.0 mm
03:38 PM 65.1°F18.4°C -5537.2°C - 7.0 mph NW11.3 kmh NW 12.1 mph19.5 kmh 24.75 in838.1 mb 0.00 in0.0 mm 0.00 in0.0 mm 0.00 in0.0 mm
03:43 PM 64.8°F18.2°C -5537.2°C - 6.0 mph NW9.7 kmh NW 11.0 mph17.7 kmh 24.75 in838.1 mb 0.00 in0.0 mm 0.00 in0.0 mm 0.00 in0.0 mm
03:48 PM 64.4°F18.0°C -5537.2°C - 6.0 mph NW9.7 kmh NW 11.2 mph18.0 kmh 24.75 in838.1 mb 0.00 in0.0 mm 0.00 in0.0 mm 0.00 in0.0 mm
03:53 PM 64.6°F18.1°C -5537.2°C - 6.0 mph NNW9.7 kmh NNW 12.1 mph19.5 kmh 24.75 in838.1 mb 0.00 in0.0 mm 0.00 in0.0 mm 0.00 in0.0 mm
03:58 PM 65.5°F18.6°C -5537.2°C - 6.0 mph N9.7 kmh N 9.6 mph15.4 kmh 24.75 in838.1 mb 0.00 in0.0 mm 0.00 in0.0 mm 0.00 in0.0 mm
04:03 PM 64.4°F18.0°C -5537.2°C - 6.0 mph NNW9.7 kmh NNW 11.6 mph18.7 kmh 24.75 in838.1 mb 0.00 in0.0 mm 0.00 in0.0 mm 0.00 in0.0 mm
04:08 PM 64.0°F17.8°C -5537.2°C - 6.0 mph NW9.7 kmh NW 11.0 mph17.7 kmh 24.75 in838.1 mb 0.00 in0.0 mm 0.00 in0.0 mm 0.00 in0.0 mm
04:13 PM 63.9°F17.7°C -5537.2°C - 5.0 mph NW8.0 kmh NW 9.2 mph14.8 kmh 24.75 in838.1 mb 0.00 in0.0 mm 0.00 in0.0 mm 0.00 in0.0 mm
04:18 PM 63.9°F17.7°C -5537.2°C - 4.0 mph NW6.4 kmh NW 9.6 mph15.4 kmh 24.75 in838.1 mb 0.00 in0.0 mm 0.00 in0.0 mm 0.00 in0.0 mm
04:23 PM 64.0°F17.8°C -5537.2°C - 4.0 mph NNW6.4 kmh NNW 6.9 mph11.1 kmh 24.75 in838.1 mb 0.00 in0.0 mm 0.00 in0.0 mm 0.00 in0.0 mm
04:28 PM 64.4°F18.0°C -5537.2°C - 4.0 mph N6.4 kmh N 5.8 mph9.3 kmh 24.75 in838.1 mb 0.00 in0.0 mm 0.00 in0.0 mm 0.00 in0.0 mm
04:33 PM 65.8°F18.8°C -5537.2°C - 3.0 mph NNW4.8 kmh NNW 5.4 mph8.7 kmh 24.75 in838.1 mb 0.00 in0.0 mm 0.00 in0.0 mm 0.00 in0.0 mm
04:38 PM 66.2°F19.0°C -5537.2°C - 5.0 mph NNW8.0 kmh NNW 10.5 mph16.9 kmh 24.75 in838.1 mb 0.00 in0.0 mm 0.00 in0.0 mm 0.00 in0.0 mm
04:43 PM 65.7°F18.7°C -5537.2°C - 6.0 mph NNW9.7 kmh NNW 9.6 mph15.4 kmh 24.75 in838.1 mb 0.00 in0.0 mm 0.00 in0.0 mm 0.00 in0.0 mm
04:48 PM 65.3°F18.5°C -5537.2°C - 6.0 mph NNW9.7 kmh NNW 8.3 mph13.4 kmh 24.75 in838.1 mb 0.00 in0.0 mm 0.00 in0.0 mm 0.00 in0.0 mm
04:53 PM 65.5°F18.6°C -5537.2°C - 5.0 mph NW8.0 kmh NW 8.3 mph13.4 kmh 24.75 in838.1 mb 0.00 in0.0 mm 0.00 in0.0 mm 0.00 in0.0 mm
04:58 PM 66.0°F18.9°C -5537.2°C - 5.0 mph NW8.0 kmh NW 8.3 mph13.4 kmh 24.75 in838.1 mb 0.00 in0.0 mm 0.00 in0.0 mm 0.00 in0.0 mm
05:03 PM 67.1°F19.5°C -5537.2°C - 3.0 mph W4.8 kmh W 5.4 mph8.7 kmh 24.75 in838.1 mb 0.00 in0.0 mm 0.00 in0.0 mm 0.00 in0.0 mm
05:08 PM 66.0°F18.9°C -5537.2°C - 3.0 mph WSW4.8 kmh WSW 8.7 mph14.0 kmh 24.75 in838.1 mb 0.00 in0.0 mm 0.00 in0.0 mm 0.00 in0.0 mm
05:13 PM 66.4°F19.1°C -5537.2°C - 4.0 mph W6.4 kmh W 7.4 mph11.9 kmh 24.75 in838.1 mb 0.00 in0.0 mm 0.00 in0.0 mm 0.00 in0.0 mm
05:18 PM 66.9°F19.4°C -5537.2°C - 4.0 mph SW6.4 kmh SW 7.8 mph12.6 kmh 24.75 in838.1 mb 0.00 in0.0 mm 0.00 in0.0 mm 0.00 in0.0 mm
05:23 PM 67.5°F19.7°C -5537.2°C - 5.0 mph SE8.0 kmh SE 10.5 mph16.9 kmh 24.75 in838.1 mb 0.00 in0.0 mm 0.00 in0.0 mm 0.00 in0.0 mm
05:28 PM 66.6°F19.2°C -5537.2°C - 6.0 mph ENE9.7 kmh ENE 11.6 mph18.7 kmh 24.75 in838.1 mb 0.00 in0.0 mm 0.00 in0.0 mm 0.00 in0.0 mm
05:33 PM 65.7°F18.7°C -5537.2°C - 8.0 mph NE12.9 kmh NE 14.8 mph23.8 kmh 24.75 in838.1 mb 0.00 in0.0 mm 0.00 in0.0 mm 0.00 in0.0 mm
05:38 PM 64.6°F18.1°C -5537.2°C - 9.0 mph NE14.5 kmh NE 14.3 mph23.0 kmh 24.75 in838.1 mb 0.00 in0.0 mm 0.00 in0.0 mm 0.00 in0.0 mm
05:43 PM 64.8°F18.2°C -5537.2°C - 8.0 mph NE12.9 kmh NE 13.4 mph21.6 kmh 24.75 in838.1 mb 0.00 in0.0 mm 0.00 in0.0 mm 0.00 in0.0 mm
05:48 PM 65.8°F18.8°C -5537.2°C - 6.0 mph NE9.7 kmh NE 9.6 mph15.4 kmh 24.75 in838.1 mb 0.00 in0.0 mm 0.00 in0.0 mm 0.00 in0.0 mm
05:53 PM 65.7°F18.7°C -5537.2°C - 5.0 mph NE8.0 kmh NE 11.0 mph17.7 kmh 24.75 in838.1 mb 0.00 in0.0 mm 0.00 in0.0 mm 0.00 in0.0 mm
06:03 PM 65.8°F18.8°C -5537.2°C - 7.0 mph N11.3 kmh N 12.1 mph19.5 kmh 24.75 in838.1 mb 0.00 in0.0 mm 0.00 in0.0 mm 0.00 in0.0 mm
06:08 PM 65.1°F18.4°C -5537.2°C - 7.0 mph 11.3 kmh 10.5 mph16.9 kmh 24.75 in838.1 mb 0.00 in0.0 mm 0.00 in0.0 mm 0.00 in0.0 mm
06:13 PM 64.8°F18.2°C -5537.2°C - 8.0 mph NNW12.9 kmh NNW 14.3 mph23.0 kmh 24.75 in838.1 mb 0.00 in0.0 mm 0.00 in0.0 mm 0.00 in0.0 mm
06:18 PM 63.7°F17.6°C -5537.2°C - 10.0 mph NNW16.1 kmh NNW 15.2 mph24.5 kmh 24.75 in838.1 mb 0.00 in0.0 mm 0.00 in0.0 mm 0.00 in0.0 mm
06:23 PM 62.2°F16.8°C -5537.2°C - 13.0 mph N20.9 kmh N 20.6 mph33.2 kmh 24.75 in838.1 mb 0.00 in0.0 mm 0.00 in0.0 mm 0.00 in0.0 mm
06:28 PM 61.9°F16.6°C -5537.2°C - 15.0 mph N24.1 kmh N 21.0 mph33.8 kmh 24.75 in838.1 mb 0.00 in0.0 mm 0.00 in0.0 mm 0.00 in0.0 mm
06:33 PM 61.5°F16.4°C -5537.2°C - 14.0 mph N22.5 kmh N 21.0 mph33.8 kmh 24.75 in838.1 mb 0.00 in0.0 mm 0.00 in0.0 mm 0.00 in0.0 mm
06:38 PM 61.5°F16.4°C -5537.2°C - 13.0 mph N20.9 kmh N 20.6 mph33.2 kmh 24.75 in838.1 mb 0.00 in0.0 mm 0.00 in0.0 mm 0.00 in0.0 mm
06:48 PM 61.7°F16.5°C -5537.2°C - 11.0 mph NNW17.7 kmh NNW 16.8 mph27.0 kmh 24.75 in838.1 mb 0.00 in0.0 mm 0.00 in0.0 mm 0.00 in0.0 mm
06:53 PM 61.5°F16.4°C -5537.2°C - 11.0 mph NNW17.7 kmh NNW 19.9 mph32.0 kmh 24.75 in838.1 mb 0.00 in0.0 mm 0.00 in0.0 mm 0.00 in0.0 mm
06:58 PM 61.2°F16.2°C -5537.2°C - 12.0 mph NNW19.3 kmh NNW 18.1 mph29.1 kmh 24.75 in838.1 mb 0.00 in0.0 mm 0.00 in0.0 mm 0.00 in0.0 mm
07:03 PM 60.8°F16.0°C 5.9°F-14.5°C 11% 12.0 mph NW19.3 kmh NW 16.3 mph26.2 kmh 24.75 in838.1 mb 0.00 in0.0 mm 0.00 in0.0 mm 0.00 in0.0 mm
07:08 PM 60.6°F15.9°C 5.9°F-14.5°C 11% 10.0 mph NW16.1 kmh NW 15.2 mph24.5 kmh 24.75 in838.1 mb 0.00 in0.0 mm 0.00 in0.0 mm 0.00 in0.0 mm
07:13 PM 60.8°F16.0°C 5.9°F-14.5°C 11% 9.0 mph NW14.5 kmh NW 12.5 mph20.1 kmh 24.75 in838.1 mb 0.00 in0.0 mm 0.00 in0.0 mm 0.00 in0.0 mm
07:18 PM 60.3°F15.7°C 5.5°F-14.7°C 11% 8.0 mph NNW12.9 kmh NNW 13.0 mph20.9 kmh 24.75 in838.1 mb 0.00 in0.0 mm 0.00 in0.0 mm 0.00 in0.0 mm
07:23 PM 60.1°F15.6°C 5.4°F-14.8°C 11% 8.0 mph NNW12.9 kmh NNW 12.5 mph20.1 kmh 24.75 in838.1 mb 0.00 in0.0 mm 0.00 in0.0 mm 0.00 in0.0 mm
07:28 PM 59.9°F15.5°C 7.2°F-13.8°C 12% 7.0 mph NNW11.3 kmh NNW 10.1 mph16.3 kmh 24.75 in838.1 mb 0.00 in0.0 mm 0.00 in0.0 mm 0.00 in0.0 mm
07:33 PM 59.9°F15.5°C 5.4°F-14.8°C 11% 5.0 mph N8.0 kmh N 6.9 mph11.1 kmh 24.75 in838.1 mb 0.00 in0.0 mm 0.00 in0.0 mm 0.00 in0.0 mm
07:38 PM 60.4°F15.8°C 5.7°F-14.6°C 11% 2.0 mph N3.2 kmh N 4.9 mph7.9 kmh 24.75 in838.1 mb 0.00 in0.0 mm 0.00 in0.0 mm 0.00 in0.0 mm
07:43 PM 60.4°F15.8°C -5537.2°C - Calm Calm -- 24.75 in838.1 mb 0.00 in0.0 mm 0.00 in0.0 mm 0.00 in0.0 mm
07:48 PM 61.2°F16.2°C -5537.2°C - 2.0 mph N3.2 kmh N 10.5 mph16.9 kmh 24.75 in838.1 mb 0.00 in0.0 mm 0.00 in0.0 mm 0.00 in0.0 mm
07:53 PM 61.3°F16.3°C -5537.2°C - 5.0 mph ENE8.0 kmh ENE 9.2 mph14.8 kmh 24.75 in838.1 mb 0.00 in0.0 mm 0.00 in0.0 mm 0.00 in0.0 mm
07:58 PM 61.5°F16.4°C -5537.2°C - 5.0 mph E8.0 kmh E 8.7 mph14.0 kmh 24.75 in838.1 mb 0.00 in0.0 mm 0.00 in0.0 mm 0.00 in0.0 mm
08:08 PM 61.0°F16.1°C -5537.2°C - 5.0 mph ENE8.0 kmh ENE 6.9 mph11.1 kmh 24.77 in838.8 mb 0.00 in0.0 mm 0.00 in0.0 mm 0.00 in0.0 mm
08:13 PM 61.2°F16.2°C -5537.2°C - 4.0 mph ENE6.4 kmh ENE 8.3 mph13.4 kmh 24.77 in838.8 mb 0.00 in0.0 mm 0.00 in0.0 mm 0.00 in0.0 mm
08:18 PM 60.8°F16.0°C -5537.2°C - 5.0 mph ENE8.0 kmh ENE 11.2 mph18.0 kmh 24.77 in838.8 mb 0.00 in0.0 mm 0.00 in0.0 mm 0.00 in0.0 mm
08:23 PM 60.6°F15.9°C -5537.2°C - 4.0 mph ENE6.4 kmh ENE 7.4 mph11.9 kmh 24.77 in838.8 mb 0.00 in0.0 mm 0.00 in0.0 mm 0.00 in0.0 mm
08:28 PM 59.9°F15.5°C -5537.2°C - 2.0 mph NE3.2 kmh NE 6.3 mph10.1 kmh 24.77 in838.8 mb 0.00 in0.0 mm 0.00 in0.0 mm 0.00 in0.0 mm
08:33 PM 59.4°F15.2°C -5537.2°C - 2.0 mph NE3.2 kmh NE 6.9 mph11.1 kmh 24.77 in838.8 mb 0.00 in0.0 mm 0.00 in0.0 mm 0.00 in0.0 mm
08:38 PM 59.5°F15.3°C -5537.2°C - 4.0 mph NE6.4 kmh NE 7.4 mph11.9 kmh 24.77 in838.8 mb 0.00 in0.0 mm 0.00 in0.0 mm 0.00 in0.0 mm
08:43 PM 59.5°F15.3°C -5537.2°C - 4.0 mph NE6.4 kmh NE 6.3 mph10.1 kmh 24.77 in838.8 mb 0.00 in0.0 mm 0.00 in0.0 mm 0.00 in0.0 mm
08:48 PM 59.7°F15.4°C -5537.2°C - 3.0 mph NE4.8 kmh NE 7.8 mph12.6 kmh 24.77 in838.8 mb 0.00 in0.0 mm 0.00 in0.0 mm 0.00 in0.0 mm
08:53 PM 59.4°F15.2°C -5537.2°C - 3.0 mph NE4.8 kmh NE 6.7 mph10.8 kmh 24.77 in838.8 mb 0.00 in0.0 mm 0.00 in0.0 mm 0.00 in0.0 mm
08:58 PM 59.9°F15.5°C -5537.2°C - 4.0 mph NE6.4 kmh NE 8.3 mph13.4 kmh 24.77 in838.8 mb 0.00 in0.0 mm 0.00 in0.0 mm 0.00 in0.0 mm
09:03 PM 59.9°F15.5°C -5537.2°C - 5.0 mph NE8.0 kmh NE 11.6 mph18.7 kmh 24.77 in838.8 mb 0.00 in0.0 mm 0.00 in0.0 mm 0.00 in0.0 mm
09:08 PM 59.9°F15.5°C -5537.2°C - 6.0 mph NE9.7 kmh NE 10.5 mph16.9 kmh 24.77 in838.8 mb 0.00 in0.0 mm 0.00 in0.0 mm 0.00 in0.0 mm
09:13 PM 59.9°F15.5°C -5537.2°C - 6.0 mph NE9.7 kmh NE 8.7 mph14.0 kmh 24.77 in838.8 mb 0.00 in0.0 mm 0.00 in0.0 mm 0.00 in0.0 mm
09:18 PM 59.9°F15.5°C -5537.2°C - 6.0 mph NE9.7 kmh NE 11.6 mph18.7 kmh 24.77 in838.8 mb 0.00 in0.0 mm 0.00 in0.0 mm 0.00 in0.0 mm
09:23 PM 58.8°F14.9°C -5537.2°C - 6.0 mph NE9.7 kmh NE 9.6 mph15.4 kmh 24.77 in838.8 mb 0.00 in0.0 mm 0.00 in0.0 mm 0.00 in0.0 mm
09:28 PM 58.1°F14.5°C -5537.2°C - 6.0 mph NNE9.7 kmh NNE 10.5 mph16.9 kmh 24.77 in838.8 mb 0.00 in0.0 mm 0.00 in0.0 mm 0.00 in0.0 mm
09:33 PM 58.5°F14.7°C -5537.2°C - 7.0 mph NNE11.3 kmh NNE 11.6 mph18.7 kmh 24.77 in838.8 mb 0.00 in0.0 mm 0.00 in0.0 mm 0.00 in0.0 mm
09:38 PM 58.5°F14.7°C -5537.2°C - 8.0 mph NNE12.9 kmh NNE 14.3 mph23.0 kmh 24.77 in838.8 mb 0.00 in0.0 mm 0.00 in0.0 mm 0.00 in0.0 mm
09:43 PM 58.3°F14.6°C -5537.2°C - 8.0 mph NNE12.9 kmh NNE 12.5 mph20.1 kmh 24.77 in838.8 mb 0.00 in0.0 mm 0.00 in0.0 mm 0.00 in0.0 mm
09:48 PM 58.1°F14.5°C -5537.2°C - 8.0 mph NNE12.9 kmh NNE 12.5 mph20.1 kmh 24.77 in838.8 mb 0.00 in0.0 mm 0.00 in0.0 mm 0.00 in0.0 mm
09:53 PM 57.2°F14.0°C -5537.2°C - 6.0 mph NNE9.7 kmh NNE 8.3 mph13.4 kmh 24.77 in838.8 mb 0.00 in0.0 mm 0.00 in0.0 mm 0.00 in0.0 mm
09:58 PM 56.7°F13.7°C -5537.2°C - 6.0 mph NNE9.7 kmh NNE 9.6 mph15.4 kmh 24.77 in838.8 mb 0.00 in0.0 mm 0.00 in0.0 mm 0.00 in0.0 mm
10:03 PM 56.7°F13.7°C 4.6°F-15.2°C 12% 6.0 mph NNE9.7 kmh NNE 11.2 mph18.0 kmh 24.80 in839.8 mb 0.00 in0.0 mm 0.00 in0.0 mm 0.00 in0.0 mm
10:08 PM 56.5°F13.6°C 4.5°F-15.3°C 12% 6.0 mph NE9.7 kmh NE 11.0 mph17.7 kmh 24.80 in839.8 mb 0.00 in0.0 mm 0.00 in0.0 mm 0.00 in0.0 mm
10:13 PM 56.3°F13.5°C 4.5°F-15.3°C 12% 6.0 mph NNE9.7 kmh NNE 7.8 mph12.6 kmh 24.80 in839.8 mb 0.00 in0.0 mm 0.00 in0.0 mm 0.00 in0.0 mm
10:18 PM 56.1°F13.4°C 4.3°F-15.4°C 12% 5.0 mph NNE8.0 kmh NNE 6.9 mph11.1 kmh 24.80 in839.8 mb 0.00 in0.0 mm 0.00 in0.0 mm 0.00 in0.0 mm
10:23 PM 56.3°F13.5°C 4.5°F-15.3°C 12% 5.0 mph N8.0 kmh N 9.2 mph14.8 kmh 24.80 in839.8 mb 0.00 in0.0 mm 0.00 in0.0 mm 0.00 in0.0 mm
10:28 PM 56.3°F13.5°C 4.5°F-15.3°C 12% 6.0 mph N9.7 kmh N 9.2 mph14.8 kmh 24.80 in839.8 mb 0.00 in0.0 mm 0.00 in0.0 mm 0.00 in0.0 mm
10:33 PM 56.3°F13.5°C 4.5°F-15.3°C 12% 4.0 mph N6.4 kmh N 5.8 mph9.3 kmh 24.80 in839.8 mb 0.00 in0.0 mm 0.00 in0.0 mm 0.00 in0.0 mm
10:38 PM 55.9°F13.3°C 4.1°F-15.5°C 12% 1.0 mph NNW1.6 kmh NNW 3.6 mph5.8 kmh 24.80 in839.8 mb 0.00 in0.0 mm 0.00 in0.0 mm 0.00 in0.0 mm
10:43 PM 55.6°F13.1°C 3.7°F-15.7°C 12% 1.0 mph NNW1.6 kmh NNW 3.1 mph5.0 kmh 24.80 in839.8 mb 0.00 in0.0 mm 0.00 in0.0 mm 0.00 in0.0 mm
10:48 PM 55.2°F12.9°C 3.6°F-15.8°C 12% 1.0 mph NNW1.6 kmh NNW 4.5 mph7.2 kmh 24.80 in839.8 mb 0.00 in0.0 mm 0.00 in0.0 mm 0.00 in0.0 mm
10:53 PM 55.6°F13.1°C 3.7°F-15.7°C 12% 2.0 mph N3.2 kmh N 4.9 mph7.9 kmh 24.80 in839.8 mb 0.00 in0.0 mm 0.00 in0.0 mm 0.00 in0.0 mm
10:58 PM 54.9°F12.7°C 3.2°F-16.0°C 12% 3.0 mph N4.8 kmh N 7.4 mph11.9 kmh 24.80 in839.8 mb 0.00 in0.0 mm 0.00 in0.0 mm 0.00 in0.0 mm
11:03 PM 53.8°F12.1°C 7.2°F-13.8°C 15% 4.0 mph NE6.4 kmh NE 5.4 mph8.7 kmh 24.80 in839.8 mb 0.00 in0.0 mm 0.00 in0.0 mm 0.00 in0.0 mm
11:08 PM 53.6°F12.0°C 7.2°F-13.8°C 15% 3.0 mph NNE4.8 kmh NNE 5.4 mph8.7 kmh 24.80 in839.8 mb 0.00 in0.0 mm 0.00 in0.0 mm 0.00 in0.0 mm
11:13 PM 54.1°F12.3°C 7.5°F-13.6°C 15% 4.0 mph N6.4 kmh N 5.8 mph9.3 kmh 24.80 in839.8 mb 0.00 in0.0 mm 0.00 in0.0 mm 0.00 in0.0 mm
11:18 PM 54.7°F12.6°C 7.9°F-13.4°C 15% 5.0 mph N8.0 kmh N 6.7 mph10.8 kmh 24.80 in839.8 mb 0.00 in0.0 mm 0.00 in0.0 mm 0.00 in0.0 mm
11:23 PM 54.5°F12.5°C 7.9°F-13.4°C 15% 4.0 mph N6.4 kmh N 6.3 mph10.1 kmh 24.80 in839.8 mb 0.00 in0.0 mm 0.00 in0.0 mm 0.00 in0.0 mm
11:28 PM 53.8°F12.1°C 7.2°F-13.8°C 15% 3.0 mph NNE4.8 kmh NNE 4.0 mph6.4 kmh 24.80 in839.8 mb 0.00 in0.0 mm 0.00 in0.0 mm 0.00 in0.0 mm
11:33 PM 53.2°F11.8°C 6.8°F-14.0°C 15% 1.0 mph NNE1.6 kmh NNE 3.6 mph5.8 kmh 24.80 in839.8 mb 0.00 in0.0 mm 0.00 in0.0 mm 0.00 in0.0 mm
11:38 PM 53.4°F11.9°C 7.0°F-13.9°C 15% 1.0 mph NNE1.6 kmh NNE 4.9 mph7.9 kmh 24.80 in839.8 mb 0.00 in0.0 mm 0.00 in0.0 mm 0.00 in0.0 mm
11:43 PM 53.6°F12.0°C 7.2°F-13.8°C 15% 2.0 mph NE3.2 kmh NE 4.9 mph7.9 kmh 24.80 in839.8 mb 0.00 in0.0 mm 0.00 in0.0 mm 0.00 in0.0 mm
11:48 PM 54.5°F12.5°C 7.9°F-13.4°C 15% 3.0 mph E4.8 kmh E 5.4 mph8.7 kmh 24.80 in839.8 mb 0.00 in0.0 mm 0.00 in0.0 mm 0.00 in0.0 mm
11:53 PM 54.7°F12.6°C 7.9°F-13.4°C 15% 3.0 mph E4.8 kmh E 6.3 mph10.1 kmh 24.80 in839.8 mb 0.00 in0.0 mm 0.00 in0.0 mm 0.00 in0.0 mm
11:58 PM 55.4°F13.0°C 3.7°F-15.7°C 12% 4.0 mph E6.4 kmh E 6.7 mph10.8 kmh 24.80 in839.8 mb 0.00 in0.0 mm 0.00 in0.0 mm 0.00 in0.0 mm